KPAN

Details ICAO KPAN
Name PAYSON
Region United States
Timezone America/Phoenix (UTC-7.0)
Plans Departing 4
Arriving 5
Stats Elevation 5,157 ft / 1,572 m (AMSL)
Location 34.256834° -111.339348°
Runways 1
Magnetic Variation 10.224° E
Sunrise 2017-12-16 14:26:17 UTC / 2017-12-16 07:26:17 Local
Sunset 2017-12-17 00:18:45 UTC / 2017-12-16 17:18:45 Local
Advertisement - Login to hide

Runways

ID Width Length Bearing (true) Bearing (mag) Surface Threshold Offset Overrun Length
06 75 ft / 23 m 5,402 ft / 1,646 m 75.70° 65.48° Asphalt 0 ft / 0 m 150 ft / 46 m
24 75 ft / 23 m 5,402 ft / 1,646 m 255.71° 245.49° Asphalt 0 ft / 0 m 100 ft / 30 m

Map

Weather


0- 5 10 15 20 25 30 35+ Temperature / ° C

Clouds and Precipitation
Forecast for 2017-12-16 12:00 UTC. Updated 3 minutes ago

Ground ~20,000 ft ~40,000 ft Winds

METAR

KPAN 160715Z AUTO 00000KT 10SM CLR 02/M14 A3008 RMK AO2

TAF

Not found

Frequencies

Recorded 119.32 MHz AWOS 3
Unicom 122.80 MHz CTAF/UNICOM
Warning: Do not use this data for real-world aviation or navigation. No guarantee of current accuracy is given.